Terminal Aerodrome Forecast
Issued by NWS Sioux Falls, SD

Home | Current Version | Previous Version | Graphics & Text | Print | Product List | Glossary On
Versions: 1 2 3 4 5 6 7 8 9 10 11 12 13 14 15 16 17 18
571
FTUS43 KFSD 060538
TAFFSD
TAF
KFSD 060538Z 0606/0706 VRB03KT 1/2SM FZFG VV002
      TEMPO 0606/0609 1/4SM FZFG
     FM060900 25005KT 3/4SM BR BKN005
     FM061400 20008KT 4SM BR SCT005
     FM061700 21009KT P6SM FEW250
     FM070300 26008KT P6SM BKN100=

USA.gov is the U.S. government's official web portal to all federal, state and local government web resources and services.